Time,TemperatureF,DewpointF,PressureIn,WindDirection,WindDirectionDegrees,WindSpeedMPH,WindSpeedGustMPH,Humidity,HourlyPrecipIn,Conditions,Clouds,dailyrainin,SoftwareType,DateUTC
2013-07-29 00:02:00,53.1,50.5,29.79,NW,322,0.0,2.0,91,0.00,,,0.00,meteohub,2013-07-29 07:02:00,
2013-07-29 00:07:00,53.1,50.5,29.79,SW,230,1.0,2.0,91,0.00,,,0.00,meteohub,2013-07-29 07:07:00,
2013-07-29 00:12:00,53.1,50.5,29.79,SSW,209,0.0,2.0,91,0.00,,,0.00,meteohub,2013-07-29 07:12:00,
2013-07-29 00:17:00,53.1,50.5,29.79,West,269,1.0,3.0,91,0.00,,,0.00,meteohub,2013-07-29 07:17:00,
2013-07-29 00:22:00,53.1,50.5,29.79,West,267,2.0,3.0,91,0.00,,,0.00,meteohub,2013-07-29 07:22:00,
2013-07-29 00:27:00,53.1,50.5,29.79,West,261,1.0,3.0,91,0.00,,,0.00,meteohub,2013-07-29 07:27:00,
2013-07-29 00:32:00,53.1,50.5,29.79,NNE,24,2.0,3.0,91,0.00,,,0.00,meteohub,2013-07-29 07:32:00,
2013-07-29 00:38:00,53.1,50.5,29.79,NNW,344,0.0,2.0,91,0.00,,,0.00,meteohub,2013-07-29 07:38:00,
2013-07-29 00:43:00,53.1,50.5,29.79,SW,214,1.0,2.0,91,0.00,,,0.00,meteohub,2013-07-29 07:43:00,
2013-07-29 00:48:00,53.1,50.5,29.79,NW,304,1.0,2.0,91,0.00,,,0.00,meteohub,2013-07-29 07:48:00,
2013-07-29 00:53:00,53.1,50.5,29.79,SSW,207,0.0,2.0,91,0.00,,,0.00,meteohub,2013-07-29 07:53:00,
2013-07-29 00:58:00,53.2,50.7,29.79,SW,214,0.0,2.0,91,0.00,,,0.00,meteohub,2013-07-29 07:58:00,
2013-07-29 01:03:00,53.2,50.7,29.79,NW,324,1.0,2.0,91,0.00,,,0.00,meteohub,2013-07-29 08:03:00,
2013-07-29 01:08:00,53.2,50.7,29.80,West,277,1.0,2.0,91,0.00,,,0.00,meteohub,2013-07-29 08:08:00,
2013-07-29 01:13:00,53.2,50.7,29.80,NNW,336,2.0,2.0,91,0.00,,,0.00,meteohub,2013-07-29 08:13:00,
2013-07-29 01:18:00,53.2,50.7,29.80,NW,304,2.0,3.0,91,0.00,,,0.00,meteohub,2013-07-29 08:18:00,
2013-07-29 01:23:00,53.2,50.7,29.80,ENE,73,1.0,3.0,91,0.00,,,0.00,meteohub,2013-07-29 08:23:00,
2013-07-29 01:28:00,53.2,50.7,29.80,West,275,0.0,3.0,91,0.00,,,0.00,meteohub,2013-07-29 08:28:00,
2013-07-29 01:34:00,53.2,50.7,29.80,West,267,0.0,2.0,91,0.00,,,0.00,meteohub,2013-07-29 08:34:00,
2013-07-29 01:39:00,53.2,50.7,29.80,NNW,340,1.0,2.0,91,0.00,,,0.00,meteohub,2013-07-29 08:39:00,
2013-07-29 01:44:00,53.2,50.7,29.80,WNW,291,1.0,2.0,91,0.00,,,0.00,meteohub,2013-07-29 08:44:00,
2013-07-29 01:49:00,53.2,50.7,29.80,NW,307,1.0,2.0,91,0.00,,,0.00,meteohub,2013-07-29 08:49:00,
2013-07-29 01:54:00,53.2,50.7,29.80,WNW,288,2.0,2.0,91,0.00,,,0.00,meteohub,2013-07-29 08:54:00,
2013-07-29 01:59:00,53.2,50.7,29.80,West,279,2.0,4.0,91,0.00,,,0.00,meteohub,2013-07-29 08:59:00,
2013-07-29 02:05:00,53.2,50.7,29.80,WNW,292,1.0,4.0,91,0.00,,,0.00,meteohub,2013-07-29 09:05:00,
2013-07-29 02:10:00,53.2,50.7,29.80,NNE,26,0.0,3.0,91,0.00,,,0.00,meteohub,2013-07-29 09:10:00,
2013-07-29 02:15:00,53.2,50.9,29.80,NNE,15,0.0,3.0,92,0.00,,,0.00,meteohub,2013-07-29 09:15:00,
2013-07-29 02:20:00,53.2,50.7,29.80,NNE,16,0.0,4.0,91,0.00,,,0.00,meteohub,2013-07-29 09:20:00,
2013-07-29 02:25:00,53.2,50.7,29.80,NNE,14,0.0,4.0,91,0.00,,,0.00,meteohub,2013-07-29 09:25:00,
2013-07-29 02:30:00,53.2,50.7,29.80,NNW,327,1.0,3.0,91,0.00,,,0.00,meteohub,2013-07-29 09:30:00,
2013-07-29 02:36:00,53.2,50.7,29.80,NNE,16,2.0,3.0,91,0.00,,,0.00,meteohub,2013-07-29 09:36:00,
2013-07-29 02:41:00,53.2,50.7,29.80,NE,49,0.0,4.0,91,0.00,,,0.00,meteohub,2013-07-29 09:41:00,
2013-07-29 02:46:00,53.2,50.9,29.80,NE,48,0.0,4.0,92,0.00,,,0.00,meteohub,2013-07-29 09:46:00,
2013-07-29 02:51:00,53.2,50.9,29.80,NE,46,0.0,4.0,92,0.00,,,0.00,meteohub,2013-07-29 09:51:00,
2013-07-29 02:56:00,53.4,51.1,29.80,NW,314,1.0,3.0,92,0.00,,,0.00,meteohub,2013-07-29 09:56:00,
2013-07-29 03:01:00,53.4,51.1,29.80,WNW,296,1.0,3.0,92,0.00,,,0.00,meteohub,2013-07-29 10:01:00,
2013-07-29 03:06:00,53.4,51.1,29.80,NNW,336,2.0,3.0,92,0.00,,,0.00,meteohub,2013-07-29 10:06:00,
2013-07-29 03:11:00,53.4,51.1,29.80,NW,323,0.0,3.0,92,0.00,,,0.00,meteohub,2013-07-29 10:11:00,
2013-07-29 03:16:00,53.4,51.1,29.80,NW,317,2.0,2.0,92,0.00,,,0.00,meteohub,2013-07-29 10:16:00,
2013-07-29 03:21:00,53.4,51.1,29.80,NNW,340,1.0,2.0,92,0.00,,,0.00,meteohub,2013-07-29 10:21:00,
2013-07-29 03:29:00,53.2,50.9,29.80,NE,36,1.0,3.0,92,0.00,,,0.00,meteohub,2013-07-29 10:29:00,
2013-07-29 03:34:00,53.2,50.9,29.80,WNW,290,0.0,3.0,92,0.00,,,0.00,meteohub,2013-07-29 10:34:00,
2013-07-29 03:39:00,53.2,50.9,29.80,WNW,291,0.0,3.0,92,0.00,,,0.00,meteohub,2013-07-29 10:39:00,
2013-07-29 03:45:00,53.2,50.9,29.80,SSW,213,1.0,3.0,92,0.00,,,0.00,meteohub,2013-07-29 10:45:00,
2013-07-29 03:52:00,53.2,50.9,29.80,West,277,2.0,3.0,92,0.00,,,0.00,meteohub,2013-07-29 10:52:00,
2013-07-29 03:57:00,53.1,50.7,29.80,SW,228,1.0,2.0,92,0.00,,,0.00,meteohub,2013-07-29 10:57:00,
2013-07-29 04:02:00,53.1,50.7,29.80,SSW,192,0.0,2.0,92,0.00,,,0.00,meteohub,2013-07-29 11:02:00,
2013-07-29 04:08:00,53.1,50.7,29.80,South,190,0.0,2.0,92,0.00,,,0.00,meteohub,2013-07-29 11:08:00,
2013-07-29 04:15:00,53.1,50.7,29.80,South,190,0.0,2.0,92,0.00,,,0.00,meteohub,2013-07-29 11:15:00,
2013-07-29 04:20:00,53.1,50.7,29.80,South,190,0.0,2.0,92,0.00,,,0.00,meteohub,2013-07-29 11:20:00,
2013-07-29 04:25:00,53.1,50.7,29.81,South,190,0.0,2.0,92,0.00,,,0.00,meteohub,2013-07-29 11:25:00,
2013-07-29 04:30:00,53.1,51.1,29.81,South,190,0.0,2.0,93,0.00,,,0.00,meteohub,2013-07-29 11:30:00,
2013-07-29 04:36:00,53.1,51.1,29.81,SW,218,1.0,3.0,93,0.00,,,0.00,meteohub,2013-07-29 11:36:00,
2013-07-29 04:42:00,53.2,51.3,29.81,SW,219,0.0,3.0,93,0.00,,,0.00,meteohub,2013-07-29 11:42:00,
2013-07-29 04:48:00,53.2,51.3,29.81,SW,219,0.0,3.0,93,0.00,,,0.00,meteohub,2013-07-29 11:48:00,
2013-07-29 04:53:00,53.2,50.9,29.81,SSW,209,0.0,3.0,92,0.00,,,0.00,meteohub,2013-07-29 11:53:00,
2013-07-29 04:59:00,53.1,50.7,29.81,West,265,0.0,2.0,92,0.00,,,0.00,meteohub,2013-07-29 11:59:00,
2013-07-29 05:05:00,53.2,50.9,29.81,West,265,0.0,2.0,92,0.00,,,0.00,meteohub,2013-07-29 12:05:00,
2013-07-29 05:11:00,53.2,50.9,29.81,West,265,0.0,2.0,92,0.00,,,0.00,meteohub,2013-07-29 12:11:00,
2013-07-29 05:17:00,53.2,50.9,29.81,NW,307,1.0,4.0,92,0.00,,,0.00,meteohub,2013-07-29 12:17:00,
2013-07-29 05:23:00,53.2,50.9,29.81,WNW,302,0.0,4.0,92,0.00,,,0.00,meteohub,2013-07-29 12:23:00,
2013-07-29 05:28:00,53.2,50.9,29.81,West,279,2.0,2.0,92,0.00,,,0.00,meteohub,2013-07-29 12:28:00,
2013-07-29 05:34:00,53.1,50.7,29.81,NNE,31,0.0,2.0,92,0.00,,,0.00,meteohub,2013-07-29 12:34:00,
2013-07-29 05:42:00,53.1,50.7,29.81,SW,218,4.0,4.0,92,0.00,,,0.00,meteohub,2013-07-29 12:42:00,
2013-07-29 05:48:00,53.1,50.7,29.81,West,263,2.0,3.0,92,0.00,,,0.00,meteohub,2013-07-29 12:48:00,
2013-07-29 05:56:00,53.1,50.7,29.81,SSW,196,0.0,4.0,92,0.00,,,0.00,meteohub,2013-07-29 12:56:00,
2013-07-29 06:02:00,53.1,50.7,29.81,SSW,196,0.0,4.0,92,0.00,,,0.00,meteohub,2013-07-29 13:02:00,
2013-07-29 06:07:00,53.1,50.7,29.82,SSW,196,0.0,3.0,92,0.00,,,0.00,meteohub,2013-07-29 13:07:00,
2013-07-29 06:12:00,53.1,50.7,29.82,SSE,159,0.0,3.0,92,0.00,,,0.00,meteohub,2013-07-29 13:12:00,
2013-07-29 06:18:00,53.2,50.9,29.82,WSW,254,0.0,2.0,92,0.00,,,0.00,meteohub,2013-07-29 13:18:00,
2013-07-29 06:24:00,53.2,50.9,29.83,WSW,256,0.0,2.0,92,0.00,,,0.00,meteohub,2013-07-29 13:24:00,
2013-07-29 06:30:00,53.2,50.9,29.83,West,260,1.0,2.0,92,0.00,,,0.00,meteohub,2013-07-29 13:30:00,
2013-07-29 06:35:00,53.2,50.9,29.83,West,259,0.0,2.0,92,0.00,,,0.00,meteohub,2013-07-29 13:35:00,
2013-07-29 06:40:00,53.2,50.9,29.84,SW,221,2.0,2.0,92,0.00,,,0.00,meteohub,2013-07-29 13:40:00,
2013-07-29 06:46:00,53.2,50.9,29.84,SW,223,0.0,4.0,92,0.00,,,0.00,meteohub,2013-07-29 13:46:00,
2013-07-29 06:51:00,53.4,51.1,29.84,SW,223,0.0,3.0,92,0.00,,,0.00,meteohub,2013-07-29 13:51:00,
2013-07-29 06:57:00,53.4,51.1,29.84,SW,217,2.0,2.0,92,0.00,,,0.00,meteohub,2013-07-29 13:57:00,
2013-07-29 07:02:00,53.6,51.3,29.84,SW,217,2.0,2.0,92,0.00,,,0.00,meteohub,2013-07-29 14:02:00,
2013-07-29 07:07:00,53.6,51.1,29.84,SW,222,0.0,2.0,91,0.00,,,0.00,meteohub,2013-07-29 14:07:00,
2013-07-29 07:12:00,53.6,51.1,29.85,SSE,163,1.0,2.0,91,0.00,,,0.00,meteohub,2013-07-29 14:12:00,
2013-07-29 07:17:00,53.6,51.1,29.85,South,172,1.0,3.0,91,0.00,,,0.00,meteohub,2013-07-29 14:17:00,
2013-07-29 07:22:00,53.6,51.1,29.86,ESE,108,1.0,4.0,91,0.00,,,0.00,meteohub,2013-07-29 14:22:00,
2013-07-29 07:27:00,53.6,51.1,29.86,SSW,194,1.0,4.0,91,0.00,,,0.00,meteohub,2013-07-29 14:27:00,
2013-07-29 07:33:00,53.6,51.1,29.86,South,190,2.0,4.0,91,0.00,,,0.00,meteohub,2013-07-29 14:33:00,
2013-07-29 07:39:00,53.6,51.1,29.86,South,187,3.0,3.0,91,0.00,,,0.00,meteohub,2013-07-29 14:39:00,
2013-07-29 07:44:00,53.6,51.1,29.86,SE,140,0.0,3.0,91,0.00,,,0.00,meteohub,2013-07-29 14:44:00,
2013-07-29 07:49:00,53.8,51.3,29.86,SSW,195,0.0,3.0,91,0.00,,,0.00,meteohub,2013-07-29 14:49:00,
2013-07-29 07:54:00,54.0,51.4,29.86,SSE,151,1.0,2.0,91,0.00,,,0.00,meteohub,2013-07-29 14:54:00,
2013-07-29 07:59:00,54.0,51.1,29.86,SE,139,0.0,2.0,90,0.00,,,0.00,meteohub,2013-07-29 14:59:00,
2013-07-29 08:05:00,54.0,51.1,29.86,South,186,2.0,2.0,90,0.00,,,0.00,meteohub,2013-07-29 15:05:00,
2013-07-29 08:10:00,54.1,51.3,29.87,SW,230,2.0,2.0,90,0.00,,,0.00,meteohub,2013-07-29 15:10:00,
2013-07-29 08:16:00,54.1,51.3,29.87,WSW,246,1.0,2.0,90,0.00,,,0.00,meteohub,2013-07-29 15:16:00,
2013-07-29 08:21:00,54.3,51.4,29.88,WNW,294,0.0,2.0,90,0.00,,,0.00,meteohub,2013-07-29 15:21:00,
2013-07-29 08:26:00,54.3,51.1,29.88,WSW,242,1.0,2.0,89,0.00,,,0.00,meteohub,2013-07-29 15:26:00,
2013-07-29 08:31:00,54.5,51.3,29.88,SSE,167,0.0,2.0,89,0.00,,,0.00,meteohub,2013-07-29 15:31:00,
2013-07-29 08:37:00,54.5,51.3,29.88,ESE,119,0.0,2.0,89,0.00,,,0.00,meteohub,2013-07-29 15:37:00,
2013-07-29 08:42:00,54.7,51.4,29.88,SE,142,0.0,2.0,89,0.00,,,0.00,meteohub,2013-07-29 15:42:00,
2013-07-29 08:48:00,54.9,51.6,29.88,SE,138,1.0,2.0,89,0.00,,,0.00,meteohub,2013-07-29 15:48:00,
2013-07-29 08:55:00,55.0,51.6,29.88,SE,130,1.0,2.0,88,0.00,,,0.00,meteohub,2013-07-29 15:55:00,
2013-07-29 09:00:00,55.2,51.8,29.88,SSW,211,1.0,1.0,88,0.00,,,0.00,meteohub,2013-07-29 16:00:00,
2013-07-29 09:07:00,55.2,52.0,29.88,SSW,211,0.0,2.0,89,0.00,,,0.00,meteohub,2013-07-29 16:07:00,
2013-07-29 09:13:00,55.2,51.8,29.89,WNW,302,1.0,2.0,88,0.00,,,0.00,meteohub,2013-07-29 16:13:00,
2013-07-29 09:19:00,55.2,51.8,29.89,West,279,1.0,3.0,88,0.00,,,0.00,meteohub,2013-07-29 16:19:00,
2013-07-29 09:25:00,55.4,52.2,29.89,West,279,1.0,2.0,89,0.00,,,0.00,meteohub,2013-07-29 16:25:00,
2013-07-29 09:31:00,55.6,52.2,29.89,West,277,0.0,2.0,88,0.00,,,0.00,meteohub,2013-07-29 16:31:00,
2013-07-29 09:36:00,55.6,52.2,29.89,West,277,0.0,2.0,88,0.00,,,0.00,meteohub,2013-07-29 16:36:00,
2013-07-29 09:41:00,55.9,52.5,29.89,ESE,103,1.0,1.0,88,0.00,,,0.00,meteohub,2013-07-29 16:41:00,
2013-07-29 09:47:00,55.9,52.2,29.89,SE,125,0.0,2.0,87,0.00,,,0.00,meteohub,2013-07-29 16:47:00,
2013-07-29 09:52:00,55.9,52.2,29.89,ESE,118,0.0,2.0,87,0.00,,,0.00,meteohub,2013-07-29 16:52:00,
2013-07-29 09:58:00,56.1,52.0,29.89,SE,133,0.0,3.0,86,0.00,,,0.00,meteohub,2013-07-29 16:58:00,
2013-07-29 10:03:00,56.5,52.3,29.89,SW,225,0.0,3.0,86,0.00,,,0.00,meteohub,2013-07-29 17:03:00,
2013-07-29 10:11:00,56.7,52.5,29.89,SW,225,0.0,3.0,86,0.00,,,0.00,meteohub,2013-07-29 17:11:00,
2013-07-29 10:16:00,57.2,52.3,29.89,NNW,329,0.0,2.0,84,0.00,,,0.00,meteohub,2013-07-29 17:16:00,
2013-07-29 10:21:00,57.6,52.7,29.89,NNW,328,0.0,2.0,84,0.00,,,0.00,meteohub,2013-07-29 17:21:00,
2013-07-29 10:28:00,58.3,53.1,29.90,SE,139,1.0,2.0,83,0.00,,,0.00,meteohub,2013-07-29 17:28:00,
2013-07-29 10:36:00,57.9,52.7,29.91,NE,49,2.0,3.0,83,0.00,,,0.00,meteohub,2013-07-29 17:36:00,
2013-07-29 10:42:00,58.3,52.9,29.90,East,94,0.0,2.0,82,0.00,,,0.00,meteohub,2013-07-29 17:42:00,
2013-07-29 10:47:00,58.1,52.9,29.91,SW,227,1.0,3.0,83,0.00,,,0.00,meteohub,2013-07-29 17:47:00,
2013-07-29 10:53:00,58.3,53.1,29.91,WSW,242,2.0,4.0,83,0.00,,,0.00,meteohub,2013-07-29 17:53:00,
2013-07-29 10:59:00,58.8,53.4,29.91,West,279,2.0,4.0,82,0.00,,,0.00,meteohub,2013-07-29 17:59:00,
2013-07-29 11:04:00,58.8,53.4,29.91,West,261,1.0,3.0,82,0.00,,,0.00,meteohub,2013-07-29 18:04:00,
2013-07-29 11:10:00,58.8,53.1,29.92,SSW,194,2.0,4.0,81,0.00,,,0.00,meteohub,2013-07-29 18:10:00,
2013-07-29 11:18:00,59.0,53.2,29.92,SW,227,1.0,4.0,81,0.00,,,0.00,meteohub,2013-07-29 18:18:00,
2013-07-29 11:23:00,59.5,53.4,29.92,SSE,153,0.0,4.0,80,0.00,,,0.00,meteohub,2013-07-29 18:23:00,
2013-07-29 11:28:00,60.3,53.8,29.92,SSW,202,0.0,4.0,79,0.00,,,0.00,meteohub,2013-07-29 18:28:00,
2013-07-29 11:35:00,60.3,53.8,29.92,SSW,202,0.0,4.0,79,0.00,,,0.00,meteohub,2013-07-29 18:35:00,
2013-07-29 11:43:00,60.4,53.6,29.92,NW,304,3.0,4.0,78,0.00,,,0.00,meteohub,2013-07-29 18:43:00,
2013-07-29 11:49:00,61.0,53.8,29.92,WSW,242,1.0,5.0,77,0.00,,,0.00,meteohub,2013-07-29 18:49:00,
2013-07-29 11:54:00,61.0,53.8,29.92,West,269,1.0,5.0,77,0.00,,,0.00,meteohub,2013-07-29 18:54:00,
2013-07-29 12:00:00,61.0,54.1,29.92,SW,217,1.0,6.0,78,0.00,,,0.00,meteohub,2013-07-29 19:00:00,
2013-07-29 12:05:00,61.3,54.1,29.92,WSW,246,1.0,5.0,77,0.00,,,0.00,meteohub,2013-07-29 19:05:00,
2013-07-29 12:11:00,61.9,54.3,29.92,West,275,0.0,5.0,76,0.00,,,0.00,meteohub,2013-07-29 19:11:00,
2013-07-29 12:16:00,62.2,54.1,29.92,WSW,242,3.0,6.0,75,0.00,,,0.00,meteohub,2013-07-29 19:16:00,
2013-07-29 12:24:00,62.6,54.1,29.92,NNE,30,2.0,6.0,74,0.00,,,0.00,meteohub,2013-07-29 19:24:00,
2013-07-29 12:29:00,62.8,54.0,29.92,West,263,1.0,5.0,73,0.00,,,0.00,meteohub,2013-07-29 19:29:00,
2013-07-29 12:34:00,62.4,54.0,29.92,East,98,2.0,5.0,74,0.00,,,0.00,meteohub,2013-07-29 19:34:00,
2013-07-29 12:39:00,62.8,54.0,29.92,SSW,194,1.0,5.0,73,0.00,,,0.00,meteohub,2013-07-29 19:39:00,
2013-07-29 12:44:00,63.3,54.5,29.92,SW,217,2.0,5.0,73,0.00,,,0.00,meteohub,2013-07-29 19:44:00,
2013-07-29 12:49:00,64.0,54.9,29.92,West,265,4.0,6.0,72,0.00,,,0.00,meteohub,2013-07-29 19:49:00,
2013-07-29 12:58:00,64.6,55.0,29.92,West,270,2.0,6.0,71,0.00,,,0.00,meteohub,2013-07-29 19:58:00,
2013-07-29 13:04:00,64.4,55.2,29.92,West,275,1.0,6.0,72,0.00,,,0.00,meteohub,2013-07-29 20:04:00,
2013-07-29 13:10:00,64.0,54.9,29.92,WNW,302,1.0,6.0,72,0.00,,,0.00,meteohub,2013-07-29 20:10:00,
2013-07-29 13:15:00,64.2,54.3,29.92,West,269,1.0,10.0,70,0.00,,,0.00,meteohub,2013-07-29 20:15:00,
2013-07-29 13:20:00,64.8,55.2,29.92,South,175,4.0,10.0,71,0.00,,,0.00,meteohub,2013-07-29 20:20:00,
2013-07-29 13:25:00,65.3,54.9,29.92,WNW,288,3.0,10.0,69,0.00,,,0.00,meteohub,2013-07-29 20:25:00,
2013-07-29 13:31:00,65.1,54.7,29.92,SW,226,0.0,7.0,69,0.00,,,0.00,meteohub,2013-07-29 20:31:00,
2013-07-29 13:37:00,65.5,55.4,29.92,WNW,284,1.0,7.0,70,0.00,,,0.00,meteohub,2013-07-29 20:37:00,
2013-07-29 13:42:00,65.8,55.0,29.91,East,88,0.0,5.0,68,0.00,,,0.00,meteohub,2013-07-29 20:42:00,
2013-07-29 13:47:00,66.4,55.9,29.91,NW,308,2.0,5.0,69,0.00,,,0.00,meteohub,2013-07-29 20:47:00,
2013-07-29 13:52:00,67.5,55.2,29.90,SW,214,2.0,5.0,65,0.00,,,0.00,meteohub,2013-07-29 20:52:00,
2013-07-29 14:00:00,67.5,55.2,29.90,SSE,164,1.0,6.0,65,0.00,,,0.00,meteohub,2013-07-29 21:00:00,
2013-07-29 14:07:00,68.4,55.8,29.90,West,277,1.0,5.0,64,0.00,,,0.00,meteohub,2013-07-29 21:07:00,
2013-07-29 14:14:00,69.4,55.4,29.90,SE,135,4.0,5.0,61,0.00,,,0.00,meteohub,2013-07-29 21:14:00,
2013-07-29 14:20:00,69.8,55.8,29.90,WSW,242,4.0,5.0,61,0.00,,,0.00,meteohub,2013-07-29 21:20:00,
2013-07-29 14:25:00,70.2,56.1,29.89,NNE,13,1.0,6.0,61,0.00,,,0.00,meteohub,2013-07-29 21:25:00,
2013-07-29 14:30:00,70.2,56.1,29.89,SW,222,5.0,6.0,61,0.00,,,0.00,meteohub,2013-07-29 21:30:00,
2013-07-29 14:35:00,71.1,56.5,29.89,SW,227,1.0,7.0,60,0.00,,,0.00,meteohub,2013-07-29 21:35:00,
2013-07-29 14:41:00,70.2,56.1,29.89,SSW,207,1.0,7.0,61,0.00,,,0.00,meteohub,2013-07-29 21:41:00,
2013-07-29 14:46:00,70.3,55.8,29.89,WNW,300,3.0,7.0,60,0.00,,,0.00,meteohub,2013-07-29 21:46:00,
2013-07-29 14:54:00,70.5,55.9,29.89,WSW,248,1.0,6.0,60,0.00,,,0.00,meteohub,2013-07-29 21:54:00,
2013-07-29 14:59:00,71.2,56.7,29.89,West,280,5.0,7.0,60,0.00,,,0.00,meteohub,2013-07-29 21:59:00,
2013-07-29 15:05:00,71.8,56.7,29.89,SW,229,4.0,7.0,59,0.00,,,0.00,meteohub,2013-07-29 22:05:00,
2013-07-29 15:10:00,72.1,56.5,29.89,SW,229,3.0,7.0,58,0.00,,,0.00,meteohub,2013-07-29 22:10:00,
2013-07-29 15:15:00,72.1,56.5,29.89,NW,313,1.0,10.0,58,0.00,,,0.00,meteohub,2013-07-29 22:15:00,
2013-07-29 15:21:00,72.3,56.7,29.89,SSE,148,1.0,10.0,58,0.00,,,0.00,meteohub,2013-07-29 22:21:00,
2013-07-29 15:27:00,72.9,57.2,29.89,West,264,2.0,8.0,58,0.00,,,0.00,meteohub,2013-07-29 22:27:00,
2013-07-29 15:32:00,72.7,57.0,29.89,SW,234,9.0,9.0,58,0.00,,,0.00,meteohub,2013-07-29 22:32:00,
2013-07-29 15:38:00,72.7,57.6,29.89,WNW,300,6.0,11.0,59,0.00,,,0.00,meteohub,2013-07-29 22:38:00,
2013-07-29 15:43:00,72.1,56.5,29.89,SSE,167,5.0,11.0,58,0.00,,,0.00,meteohub,2013-07-29 22:43:00,
2013-07-29 15:49:00,72.0,56.8,29.89,SSW,198,4.0,11.0,59,0.00,,,0.00,meteohub,2013-07-29 22:49:00,
2013-07-29 15:54:00,72.0,57.4,29.90,NW,311,2.0,11.0,60,0.00,,,0.00,meteohub,2013-07-29 22:54:00,
2013-07-29 15:59:00,71.4,56.8,29.90,SW,233,4.0,11.0,60,0.00,,,0.00,meteohub,2013-07-29 22:59:00,
2013-07-29 16:05:00,71.6,57.0,29.90,South,178,1.0,11.0,60,0.00,,,0.00,meteohub,2013-07-29 23:05:00,
2013-07-29 16:11:00,71.4,56.3,29.90,WSW,242,6.0,7.0,59,0.00,,,0.00,meteohub,2013-07-29 23:11:00,
2013-07-29 16:18:00,71.1,56.5,29.90,West,272,4.0,7.0,60,0.00,,,0.00,meteohub,2013-07-29 23:18:00,
2013-07-29 16:26:00,70.2,56.1,29.90,WSW,241,5.0,9.0,61,0.00,,,0.00,meteohub,2013-07-29 23:26:00,
2013-07-29 16:31:00,70.2,56.5,29.90,SW,229,2.0,10.0,62,0.00,,,0.00,meteohub,2013-07-29 23:31:00,
2013-07-29 16:36:00,70.0,56.3,29.90,SW,231,9.0,10.0,62,0.00,,,0.00,meteohub,2013-07-29 23:36:00,
2013-07-29 16:41:00,69.3,56.1,29.90,SW,223,4.0,10.0,63,0.00,,,0.00,meteohub,2013-07-29 23:41:00,
2013-07-29 16:47:00,68.7,55.6,29.90,SW,233,3.0,11.0,63,0.00,,,0.00,meteohub,2013-07-29 23:47:00,
2013-07-29 16:53:00,68.2,55.9,29.91,West,275,6.0,12.0,65,0.00,,,0.00,meteohub,2013-07-29 23:53:00,
2013-07-29 16:58:00,68.2,55.9,29.91,SSW,205,3.0,13.0,65,0.00,,,0.00,meteohub,2013-07-29 23:58:00,
2013-07-29 17:04:00,67.5,56.1,29.91,WSW,257,4.0,11.0,67,0.00,,,0.00,meteohub,2013-07-30 00:04:00,
2013-07-29 17:09:00,66.7,55.8,29.91,SSE,167,3.0,13.0,68,0.00,,,0.00,meteohub,2013-07-30 00:09:00,
2013-07-29 17:14:00,66.9,55.6,29.91,SSW,200,4.0,13.0,67,0.00,,,0.00,meteohub,2013-07-30 00:14:00,
2013-07-29 17:20:00,66.6,55.6,29.91,WSW,256,5.0,12.0,68,0.00,,,0.00,meteohub,2013-07-30 00:20:00,
2013-07-29 17:27:00,66.4,55.9,29.91,South,188,4.0,12.0,69,0.00,,,0.00,meteohub,2013-07-30 00:27:00,
2013-07-29 17:33:00,66.4,55.6,29.91,SW,227,2.0,8.0,68,0.00,,,0.00,meteohub,2013-07-30 00:33:00,
2013-07-29 17:38:00,65.8,55.8,29.91,NW,314,6.0,8.0,70,0.00,,,0.00,meteohub,2013-07-30 00:38:00,
2013-07-29 17:43:00,65.5,55.4,29.91,SW,226,5.0,7.0,70,0.00,,,0.00,meteohub,2013-07-30 00:43:00,
2013-07-29 17:48:00,65.5,55.4,29.91,WSW,250,3.0,9.0,70,0.00,,,0.00,meteohub,2013-07-30 00:48:00,
2013-07-29 17:54:00,64.8,55.2,29.92,West,260,4.0,9.0,71,0.00,,,0.00,meteohub,2013-07-30 00:54:00,
2013-07-29 17:59:00,64.6,55.0,29.92,WSW,249,4.0,9.0,71,0.00,,,0.00,meteohub,2013-07-30 00:59:00,
2013-07-29 18:05:00,64.8,55.2,29.92,SW,223,6.0,9.0,71,0.00,,,0.00,meteohub,2013-07-30 01:05:00,
2013-07-29 18:10:00,63.9,54.7,29.91,WSW,237,5.0,7.0,72,0.00,,,0.00,meteohub,2013-07-30 01:10:00,
2013-07-29 18:16:00,63.5,54.7,29.91,SW,219,1.0,8.0,73,0.00,,,0.00,meteohub,2013-07-30 01:16:00,
2013-07-29 18:21:00,63.9,54.7,29.91,West,275,3.0,8.0,72,0.00,,,0.00,meteohub,2013-07-30 01:21:00,
2013-07-29 18:26:00,63.7,54.9,29.91,SW,221,1.0,8.0,73,0.00,,,0.00,meteohub,2013-07-30 01:26:00,
2013-07-29 18:31:00,63.7,54.5,29.91,SSW,209,1.0,7.0,72,0.00,,,0.00,meteohub,2013-07-30 01:31:00,
2013-07-29 18:37:00,63.5,54.7,29.91,ESE,116,2.0,7.0,73,0.00,,,0.00,meteohub,2013-07-30 01:37:00,
2013-07-29 18:44:00,63.1,54.7,29.91,SW,223,0.0,6.0,74,0.00,,,0.00,meteohub,2013-07-30 01:44:00,
2013-07-29 18:50:00,62.8,54.3,29.91,SSW,194,1.0,6.0,74,0.00,,,0.00,meteohub,2013-07-30 01:50:00,
2013-07-29 18:56:00,62.8,54.3,29.91,SW,214,3.0,6.0,74,0.00,,,0.00,meteohub,2013-07-30 01:56:00,
2013-07-29 19:03:00,62.6,54.1,29.91,SW,223,2.0,6.0,74,0.00,,,0.00,meteohub,2013-07-30 02:03:00,
2013-07-29 19:09:00,62.4,54.0,29.91,SW,222,4.0,4.0,74,0.00,,,0.00,meteohub,2013-07-30 02:09:00,
2013-07-29 19:17:00,62.2,54.1,29.91,WNW,298,0.0,4.0,75,0.00,,,0.00,meteohub,2013-07-30 02:17:00,
2013-07-29 19:24:00,62.1,54.0,29.91,SSE,165,1.0,4.0,75,0.00,,,0.00,meteohub,2013-07-30 02:24:00,
2013-07-29 19:29:00,61.9,53.8,29.91,SW,225,4.0,4.0,75,0.00,,,0.00,meteohub,2013-07-30 02:29:00,
2013-07-29 19:34:00,61.2,53.6,29.91,SW,230,0.0,4.0,76,0.00,,,0.00,meteohub,2013-07-30 02:34:00,
2013-07-29 19:39:00,61.0,53.8,29.91,SSW,211,0.0,4.0,77,0.00,,,0.00,meteohub,2013-07-30 02:39:00,
2013-07-29 19:45:00,60.3,53.4,29.91,SSE,155,1.0,4.0,78,0.00,,,0.00,meteohub,2013-07-30 02:45:00,
2013-07-29 19:50:00,60.3,53.4,29.91,SW,223,1.0,3.0,78,0.00,,,0.00,meteohub,2013-07-30 02:50:00,
2013-07-29 19:55:00,60.3,53.4,29.91,SW,215,2.0,3.0,78,0.00,,,0.00,meteohub,2013-07-30 02:55:00,
2013-07-29 20:01:00,59.5,53.1,29.91,WSW,242,2.0,3.0,79,0.00,,,0.00,meteohub,2013-07-30 03:01:00,
2013-07-29 20:07:00,59.2,53.1,29.91,SW,223,0.0,4.0,80,0.00,,,0.00,meteohub,2013-07-30 03:07:00,
2013-07-29 20:14:00,58.8,53.1,29.91,SSE,164,1.0,4.0,81,0.00,,,0.00,meteohub,2013-07-30 03:14:00,
2013-07-29 20:20:00,58.5,52.7,29.91,SW,217,0.0,5.0,81,0.00,,,0.00,meteohub,2013-07-30 03:20:00,
2013-07-29 20:25:00,57.9,52.5,29.91,SW,214,4.0,5.0,82,0.00,,,0.00,meteohub,2013-07-30 03:25:00,
2013-07-29 20:31:00,57.6,52.5,29.91,SW,225,2.0,5.0,83,0.00,,,0.00,meteohub,2013-07-30 03:31:00,
2013-07-29 20:36:00,57.0,52.0,29.92,SSE,156,2.0,5.0,83,0.00,,,0.00,meteohub,2013-07-30 03:36:00,
2013-07-29 20:42:00,56.7,51.8,29.92,SSW,194,0.0,5.0,84,0.00,,,0.00,meteohub,2013-07-30 03:42:00,
2013-07-29 20:47:00,56.5,52.0,29.92,WNW,288,0.0,5.0,85,0.00,,,0.00,meteohub,2013-07-30 03:47:00,
2013-07-29 20:52:00,56.1,51.6,29.92,WSW,237,2.0,5.0,85,0.00,,,0.00,meteohub,2013-07-30 03:52:00,
2013-07-29 20:57:00,55.8,51.6,29.92,SSW,205,0.0,2.0,86,0.00,,,0.00,meteohub,2013-07-30 03:57:00,
2013-07-29 21:01:00,55.6,51.4,29.92,SW,223,4.0,4.0,86,0.00,,,0.00,meteohub,2013-07-30 04:01:00,
2013-07-29 21:02:00,55.6,51.4,29.92,SW,221,4.0,4.0,86,0.00,,,0.00,meteohub,2013-07-30 04:02:00,
2013-07-29 21:03:00,55.6,51.4,29.92,West,267,1.0,3.0,86,0.00,,,0.00,meteohub,2013-07-30 04:03:00,
2013-07-29 21:08:00,55.4,51.6,29.93,SSW,196,2.0,4.0,87,0.00,,,0.00,meteohub,2013-07-30 04:08:00,
2013-07-29 21:13:00,55.2,51.4,29.93,SSW,210,3.0,4.0,87,0.00,,,0.00,meteohub,2013-07-30 04:13:00,
2013-07-29 21:14:00,55.2,51.4,29.93,SW,221,2.0,4.0,87,0.00,,,0.00,meteohub,2013-07-30 04:14:00,
2013-07-29 21:19:00,55.0,51.3,29.93,SW,229,1.0,4.0,87,0.00,,,0.00,meteohub,2013-07-30 04:19:00,
2013-07-29 21:25:00,54.9,51.1,29.94,SW,222,2.0,4.0,87,0.00,,,0.00,meteohub,2013-07-30 04:25:00,
2013-07-29 21:30:00,54.9,51.4,29.94,South,187,1.0,4.0,88,0.00,,,0.00,meteohub,2013-07-30 04:30:00,
2013-07-29 21:35:00,54.9,51.4,29.94,SW,225,1.0,4.0,88,0.00,,,0.00,meteohub,2013-07-30 04:35:00,
2013-07-29 21:40:00,54.9,51.4,29.94,SW,228,0.0,4.0,88,0.00,,,0.00,meteohub,2013-07-30 04:40:00,
2013-07-29 21:45:00,54.9,51.4,29.94,SSW,194,1.0,4.0,88,0.00,,,0.00,meteohub,2013-07-30 04:45:00,
2013-07-29 21:50:00,54.9,51.4,29.94,SSW,199,2.0,4.0,88,0.00,,,0.00,meteohub,2013-07-30 04:50:00,
2013-07-29 21:55:00,54.9,51.4,29.95,SW,233,1.0,6.0,88,0.00,,,0.00,meteohub,2013-07-30 04:55:00,
2013-07-29 22:00:00,54.9,51.4,29.95,SSW,205,0.0,6.0,88,0.00,,,0.00,meteohub,2013-07-30 05:00:00,
2013-07-29 22:05:00,54.9,51.4,29.95,SW,229,0.0,4.0,88,0.00,,,0.00,meteohub,2013-07-30 05:05:00,
2013-07-29 22:10:00,55.0,51.6,29.96,SW,223,1.0,4.0,88,0.00,,,0.00,meteohub,2013-07-30 05:10:00,
2013-07-29 22:15:00,55.0,51.3,29.96,West,267,0.0,4.0,87,0.00,,,0.00,meteohub,2013-07-30 05:15:00,
2013-07-29 22:20:00,55.0,51.6,29.96,West,276,0.0,3.0,88,0.00,,,0.00,meteohub,2013-07-30 05:20:00,
2013-07-29 22:26:00,54.9,51.1,29.96,WSW,257,1.0,4.0,87,0.00,,,0.00,meteohub,2013-07-30 05:26:00,
2013-07-29 22:31:00,54.9,51.4,29.96,West,269,0.0,4.0,88,0.00,,,0.00,meteohub,2013-07-30 05:31:00,
2013-07-29 22:36:00,54.9,51.4,29.96,SW,230,1.0,3.0,88,0.00,,,0.00,meteohub,2013-07-30 05:36:00,
2013-07-29 22:41:00,54.9,51.4,29.96,NW,311,2.0,3.0,88,0.00,,,0.00,meteohub,2013-07-30 05:41:00,
2013-07-29 22:46:00,54.7,51.3,29.96,WSW,254,0.0,3.0,88,0.00,,,0.00,meteohub,2013-07-30 05:46:00,
2013-07-29 22:51:00,54.9,51.4,29.96,WSW,254,0.0,2.0,88,0.00,,,0.00,meteohub,2013-07-30 05:51:00,
2013-07-29 22:57:00,54.7,51.3,29.96,SSE,159,2.0,2.0,88,0.00,,,0.00,meteohub,2013-07-30 05:57:00,
2013-07-29 23:02:00,54.7,51.3,29.96,SE,146,1.0,2.0,88,0.00,,,0.00,meteohub,2013-07-30 06:02:00,
2013-07-29 23:08:00,54.7,51.4,29.96,SSW,210,1.0,3.0,89,0.00,,,0.00,meteohub,2013-07-30 06:08:00,
2013-07-29 23:13:00,54.7,51.3,29.96,SSE,165,2.0,3.0,88,0.00,,,0.00,meteohub,2013-07-30 06:13:00,
2013-07-29 23:18:00,54.7,51.3,29.96,SSE,163,1.0,3.0,88,0.00,,,0.00,meteohub,2013-07-30 06:18:00,
2013-07-29 23:23:00,54.7,51.4,29.96,SE,145,2.0,4.0,89,0.00,,,0.00,meteohub,2013-07-30 06:23:00,
2013-07-29 23:28:00,54.7,51.3,29.96,South,184,1.0,4.0,88,0.00,,,0.00,meteohub,2013-07-30 06:28:00,
2013-07-29 23:33:00,54.5,51.3,29.96,SE,140,1.0,3.0,89,0.00,,,0.00,meteohub,2013-07-30 06:33:00,
2013-07-29 23:39:00,54.5,51.3,29.96,SE,125,0.0,3.0,89,0.00,,,0.00,meteohub,2013-07-30 06:39:00,
2013-07-29 23:44:00,54.7,51.4,29.96,SE,146,0.0,4.0,89,0.00,,,0.00,meteohub,2013-07-30 06:44:00,
2013-07-29 23:49:00,54.7,51.4,29.96,West,267,2.0,3.0,89,0.00,,,0.00,meteohub,2013-07-30 06:49:00,
2013-07-29 23:54:00,54.5,51.3,29.97,West,279,2.0,4.0,89,0.00,,,0.00,meteohub,2013-07-30 06:54:00,
2013-07-29 23:59:00,54.3,51.1,29.97,West,273,0.0,5.0,89,0.00,,,0.00,meteohub,2013-07-30 06:59:00,